KOPF/OPF METAR and TAF weather

Enter ICAO airport designator
Station Type Date Time Source
KOPF METAR 2019/12/06 08:53 UTC NOAA

KOPF 060853Z AUTO 36005KT 10SM CLR 14/11 A3013 RMK AO2 SLP205 T01440106 58003


Station Type Date Time Source
KOPF Decoded METAR 2019/12/06 08:53 UTC NOAA

MIAMI OPA LOCKA AIRPORT, FL, United States (KOPF) 25-54N 80-17W 16M
Dec 06, 2019 - 03:53 AM EST / 2019.12.06 0853 UTC
Wind: from the N (360 degrees) at 6 MPH (5 KT):0
Visibility: 10 mile(s):0
Sky conditions: clear
Temperature: 57.9 F (14.4 C)
Dew Point: 51.1 F (10.6 C)
Relative Humidity: 77%
Pressure (altimeter): 30.13 in. Hg (1020 hPa)
Pressure tendency: 0.01 inches (0.3 hPa) lower than three hours ago
ob: KOPF 060853Z AUTO 36005KT 10SM CLR 14/11 A3013 RMK AO2 SLP205 T01440106 58003
cycle: 9

Station Type Date Time Source
KOPF TAF 2019/12/06 09:10 UTC NOAA

TAF
AMD KOPF 060907Z 0609/0706 35005KT P6SM SCT250
FM061600 12006KT P6SM FEW035 SCT250
FM070000 VRB03KT P6SM SCT250

Example: see airport list